메인 페이지
METAR-TAF:

METAR-TAF

공항 :

시카고 오헤어 국제공항

시카고, 일리노이, 미국

위도: 41-58-47N, 경도: 087-54-16W, 고도: 203m

현재 날씨관측

예보는 6분 전, 17:51시(UTC)에 발표되었습니다.
13kt, 순간 최대 풍속 18kt
온도 27°C
습도 54%
기압 1011 hPa
시정: 16.1km
고도 3700ft 상공 구름 많음
고도 25000ft 상공 구름 많음

METAR: KORD 251751Z 19013G18KT 10SM BKN037 BKN250 27/17 A2985 RMK AO2 SLP103 T02720172 10272 20206 58011

시각: 12:57 (17:57 UTC)

예보

예보는 17분 전, 17:40시(UTC)에 발표되었습니다.
예보 대상 시간: 25일 18시부터 26일 24시까지 (UTC)
남서12kt, 순간 최대 풍속 18kt
시정: 10km
고도 3000ft 상공 구름 보통
고도 5000ft 상공 구름 많음
26일 0000시부터 (UTC)
10kt
시정: 10km
고도 2500ft 상공 구름 보통
고도 8000ft 상공 구름 많음
약한소나기
일시적
26일 00시부터 26일 02시까지 (UTC)
시정: 3.2km
고도 2500ft 상공 구름 많음, 적란운.
고도 3500ft 상공 흐림
뇌우, 비
26일 0400시부터 (UTC)
서북서15kt, 순간 최대 풍속 24kt
시정: 10km
고도 1200ft 상공 구름 많음
고도 25000ft 상공 흐림
26일 1000시부터 (UTC)
서북서13kt
시정: 10km
고도 1800ft 상공 구름 보통
고도 25000ft 상공 구름 많음
26일 1500시부터 (UTC)
12kt
시정: 10km
고도 5000ft 상공 구름 많음

TAF: KORD 251740Z 2518/2624 22012G18KT P6SM SCT030 BKN050 FM260000 26010KT P6SM -SHRA SCT025 BKN080 TEMPO 2600/2602 2SM TSRA BKN025CB OVC035 FM260400 30015G24KT P6SM BKN012 OVC250 FM261000 30013KT P6SM SCT018 BKN250 FM261500 28012KT P6SM BKN050

4,000개 이상의 공항 관측 자료 및 예보 (METAR 및 TAF 보고).

지도상에서 검색 가능한 기상관측소가 노란 점과 빨간 점으로 표시되어 있습니다.

기상관측소 명을 보려면 표시 위로 마우스를 이동하세요.

날씨 관측과 예보를 보려면 클릭하세요.

지도 변경 : 확대하려면 엑스 표시가 있는 녹색 버튼, 축소하려면 빼기 표시가 있는 녹색 버튼, 다음 페이지의 지도를 보려면 녹색 화살표를 클릭하세요.


METAR-TAF: